sensor_id;sensor_type;location;lat;lon;timestamp;pressure;altitude;pressure_sealevel;temperature;humidity
788;BME280;16074;42.708;23.312;2023-01-30T00:01:13;138361.66;;;0.18;100.00
788;BME280;16074;42.708;23.312;2023-01-30T00:03:42;138337.81;;;0.08;100.00
788;BME280;16074;42.708;23.312;2023-01-30T00:06:10;138335.44;;;0.07;100.00
788;BME280;16074;42.708;23.312;2023-01-30T00:08:39;138343.81;;;0.10;100.00
788;BME280;16074;42.708;23.312;2023-01-30T00:11:09;138337.81;;;0.08;100.00
788;BME280;16074;42.708;23.312;2023-01-30T00:13:40;138342.59;;;0.10;100.00
788;BME280;16074;42.708;23.312;2023-01-30T00:16:09;138347.34;;;0.12;100.00
788;BME280;16074;42.708;23.312;2023-01-30T00:18:41;138358.09;;;0.16;100.00
788;BME280;16074;42.708;23.312;2023-01-30T00:21:11;138339.03;;;0.08;100.00
788;BME280;16074;42.708;23.312;2023-01-30T00:23:40;138366.44;;;0.20;100.00
788;BME280;16074;42.708;23.312;2023-01-30T00:26:09;138342.59;;;0.10;100.00
788;BME280;16074;42.708;23.312;2023-01-30T00:28:40;138321.13;;;0.01;100.00
788;BME280;16074;42.708;23.312;2023-01-30T00:31:08;138329.50;;;0.04;100.00
788;BME280;16074;42.708;23.312;2023-01-30T00:45:46;138368.81;;;0.21;100.00
788;BME280;16074;42.708;23.312;2023-01-30T00:48:32;138385.50;;;0.28;100.00
788;BME280;16074;42.708;23.312;2023-01-30T00:51:01;138372.41;;;0.22;100.00
788;BME280;16074;42.708;23.312;2023-01-30T00:53:29;138347.34;;;0.12;100.00
788;BME280;16074;42.708;23.312;2023-01-30T00:55:57;138358.09;;;0.16;100.00
788;BME280;16074;42.708;23.312;2023-01-30T00:58:26;138315.19;;;-0.02;100.00
788;BME280;16074;42.708;23.312;2023-01-30T01:00:56;138317.56;;;-0.01;100.00
788;BME280;16074;42.708;23.312;2023-01-30T01:03:24;138303.28;;;-0.06;100.00
788;BME280;16074;42.708;23.312;2023-01-30T01:05:52;138328.28;;;0.04;100.00
788;BME280;16074;42.708;23.312;2023-01-30T01:08:20;138316.41;;;-0.01;100.00
788;BME280;16074;42.708;23.312;2023-01-30T01:10:49;138302.09;;;-0.07;100.00
788;BME280;16074;42.708;23.312;2023-01-30T01:13:18;138300.88;;;-0.07;100.00
788;BME280;16074;42.708;23.312;2023-01-30T01:15:46;138279.44;;;-0.16;100.00
788;BME280;16074;42.708;23.312;2023-01-30T01:18:16;138283.03;;;-0.15;100.00
788;BME280;16074;42.708;23.312;2023-01-30T01:20:45;138290.19;;;-0.12;100.00
788;BME280;16074;42.708;23.312;2023-01-30T01:23:14;138296.13;;;-0.09;100.00
788;BME280;16074;42.708;23.312;2023-01-30T01:25:42;138294.94;;;-0.10;100.00
788;BME280;16074;42.708;23.312;2023-01-30T01:28:11;138302.09;;;-0.07;100.00
788;BME280;16074;42.708;23.312;2023-01-30T01:30:39;138287.81;;;-0.13;100.00
788;BME280;16074;42.708;23.312;2023-01-30T01:33:09;138296.13;;;-0.09;100.00
788;BME280;16074;42.708;23.312;2023-01-30T01:35:40;138271.13;;;-0.20;100.00
788;BME280;16074;42.708;23.312;2023-01-30T01:38:09;138273.50;;;-0.19;100.00
788;BME280;16074;42.708;23.312;2023-01-30T01:40:38;138275.88;;;-0.18;100.00
788;BME280;16074;42.708;23.312;2023-01-30T01:43:24;138324.72;;;0.02;100.00
788;BME280;16074;42.708;23.312;2023-01-30T01:45:57;138308.03;;;-0.04;100.00
788;BME280;16074;42.708;23.312;2023-01-30T01:48:29;138293.75;;;-0.10;100.00
788;BME280;16074;42.708;23.312;2023-01-30T01:51:02;138296.13;;;-0.09;100.00
788;BME280;16074;42.708;23.312;2023-01-30T01:53:34;138291.34;;;-0.11;100.00
788;BME280;16074;42.708;23.312;2023-01-30T01:56:04;138294.94;;;-0.10;100.00
788;BME280;16074;42.708;23.312;2023-01-30T01:58:36;138297.34;;;-0.09;100.00
788;BME280;16074;42.708;23.312;2023-01-30T02:01:07;138297.34;;;-0.09;100.00
788;BME280;16074;42.708;23.312;2023-01-30T02:03:39;138308.03;;;-0.04;100.00
788;BME280;16074;42.708;23.312;2023-01-30T02:06:13;138321.13;;;0.01;100.00
788;BME280;16074;42.708;23.312;2023-01-30T02:08:45;138336.66;;;0.07;100.00
788;BME280;16074;42.708;23.312;2023-01-30T02:11:21;138325.88;;;0.03;100.00
788;BME280;16074;42.708;23.312;2023-01-30T02:13:54;138309.25;;;-0.04;100.00
788;BME280;16074;42.708;23.312;2023-01-30T02:16:23;138316.41;;;-0.01;100.00
788;BME280;16074;42.708;23.312;2023-01-30T02:18:51;138310.44;;;-0.03;100.00
788;BME280;16074;42.708;23.312;2023-01-30T02:27:25;138279.44;;;-0.16;100.00
788;BME280;16074;42.708;23.312;2023-01-30T02:30:35;138294.94;;;-0.10;100.00
788;BME280;16074;42.708;23.312;2023-01-30T02:33:12;138294.94;;;-0.10;100.00
788;BME280;16074;42.708;23.312;2023-01-30T02:35:52;138299.72;;;-0.08;100.00
788;BME280;16074;42.708;23.312;2023-01-30T02:38:32;138311.63;;;-0.03;100.00
788;BME280;16074;42.708;23.312;2023-01-30T02:41:11;138318.78;;;0.00;100.00
788;BME280;16074;42.708;23.312;2023-01-30T02:43:52;138309.25;;;-0.04;100.00
788;BME280;16074;42.708;23.312;2023-01-30T02:46:34;138310.44;;;-0.03;100.00
788;BME280;16074;42.708;23.312;2023-01-30T02:49:06;138315.19;;;-0.02;100.00
788;BME280;16074;42.708;23.312;2023-01-30T02:51:38;138298.50;;;-0.08;100.00
788;BME280;16074;42.708;23.312;2023-01-30T02:54:10;138315.19;;;-0.02;100.00
788;BME280;16074;42.708;23.312;2023-01-30T02:56:44;138279.44;;;-0.16;100.00
788;BME280;16074;42.708;23.312;2023-01-30T02:59:15;138286.59;;;-0.13;100.00
788;BME280;16074;42.708;23.312;2023-01-30T03:05:21;138284.19;;;-0.14;100.00
788;BME280;16074;42.708;23.312;2023-01-30T03:08:04;138279.44;;;-0.16;100.00
788;BME280;16074;42.708;23.312;2023-01-30T03:10:40;138269.91;;;-0.20;100.00
788;BME280;16074;42.708;23.312;2023-01-30T03:13:16;138272.28;;;-0.19;100.00
788;BME280;16074;42.708;23.312;2023-01-30T03:15:49;138269.91;;;-0.20;100.00
788;BME280;16074;42.708;23.312;2023-01-30T03:18:20;138243.72;;;-0.31;100.00
788;BME280;16074;42.708;23.312;2023-01-30T03:20:51;138223.47;;;-0.40;100.00
788;BME280;16074;42.708;23.312;2023-01-30T03:23:20;138240.13;;;-0.33;100.00
788;BME280;16074;42.708;23.312;2023-01-30T03:25:50;138225.84;;;-0.39;100.00
788;BME280;16074;42.708;23.312;2023-01-30T03:28:19;138228.22;;;-0.38;100.00
788;BME280;16074;42.708;23.312;2023-01-30T03:30:48;138215.13;;;-0.43;100.00
788;BME280;16074;42.708;23.312;2023-01-30T03:33:17;138206.78;;;-0.47;100.00
788;BME280;16074;42.708;23.312;2023-01-30T03:35:48;138217.53;;;-0.42;100.00
788;BME280;16074;42.708;23.312;2023-01-30T03:38:18;138246.13;;;-0.30;100.00
788;BME280;16074;42.708;23.312;2023-01-30T03:40:49;138263.97;;;-0.23;100.00
788;BME280;16074;42.708;23.312;2023-01-30T03:43:17;138249.66;;;-0.29;100.00
788;BME280;16074;42.708;23.312;2023-01-30T03:45:45;138257.97;;;-0.25;100.00
788;BME280;16074;42.708;23.312;2023-01-30T03:48:14;138217.53;;;-0.42;100.00
788;BME280;16074;42.708;23.312;2023-01-30T03:50:43;138217.53;;;-0.42;100.00
788;BME280;16074;42.708;23.312;2023-01-30T03:53:11;138235.38;;;-0.35;100.00
788;BME280;16074;42.708;23.312;2023-01-30T03:55:42;138237.75;;;-0.34;100.00
788;BME280;16074;42.708;23.312;2023-01-30T03:58:11;138243.72;;;-0.31;100.00
788;BME280;16074;42.708;23.312;2023-01-30T04:00:39;138240.13;;;-0.33;100.00
788;BME280;16074;42.708;23.312;2023-01-30T04:03:08;138257.97;;;-0.25;100.00
788;BME280;16074;42.708;23.312;2023-01-30T04:05:37;138275.88;;;-0.18;100.00
788;BME280;16074;42.708;23.312;2023-01-30T04:08:07;138278.28;;;-0.17;100.00
788;BME280;16074;42.708;23.312;2023-01-30T04:10:35;138244.91;;;-0.31;100.00
788;BME280;16074;42.708;23.312;2023-01-30T04:13:05;138227.06;;;-0.38;100.00
788;BME280;16074;42.708;23.312;2023-01-30T04:15:34;138231.81;;;-0.36;100.00
788;BME280;16074;42.708;23.312;2023-01-30T04:18:17;138238.97;;;-0.33;100.00
788;BME280;16074;42.708;23.312;2023-01-30T04:21:04;138199.63;;;-0.50;100.00
788;BME280;16074;42.708;23.312;2023-01-30T04:23:36;138187.72;;;-0.55;100.00
788;BME280;16074;42.708;23.312;2023-01-30T04:26:06;138221.06;;;-0.41;100.00
788;BME280;16074;42.708;23.312;2023-01-30T04:28:39;138204.41;;;-0.48;100.00
788;BME280;16074;42.708;23.312;2023-01-30T04:31:07;138193.69;;;-0.52;100.00
788;BME280;16074;42.708;23.312;2023-01-30T04:33:41;138187.72;;;-0.55;100.00
788;BME280;16074;42.708;23.312;2023-01-30T04:36:11;138216.31;;;-0.43;100.00
788;BME280;16074;42.708;23.312;2023-01-30T04:38:40;138200.84;;;-0.49;100.00
788;BME280;16074;42.708;23.312;2023-01-30T04:41:09;138200.84;;;-0.49;100.00
788;BME280;16074;42.708;23.312;2023-01-30T04:43:41;138204.41;;;-0.48;100.00
788;BME280;16074;42.708;23.312;2023-01-30T04:46:27;138206.78;;;-0.47;100.00
788;BME280;16074;42.708;23.312;2023-01-30T04:48:56;138213.94;;;-0.44;100.00
788;BME280;16074;42.708;23.312;2023-01-30T04:51:25;138203.22;;;-0.48;100.00
788;BME280;16074;42.708;23.312;2023-01-30T04:53:53;138198.47;;;-0.50;100.00
788;BME280;16074;42.708;23.312;2023-01-30T04:56:22;138213.94;;;-0.44;100.00
788;BME280;16074;42.708;23.312;2023-01-30T04:58:53;138231.81;;;-0.36;100.00
788;BME280;16074;42.708;23.312;2023-01-30T05:01:24;138204.41;;;-0.48;100.00
788;BME280;16074;42.708;23.312;2023-01-30T05:03:54;138208.00;;;-0.46;100.00
788;BME280;16074;42.708;23.312;2023-01-30T05:06:23;138219.91;;;-0.41;100.00
788;BME280;16074;42.708;23.312;2023-01-30T05:08:53;138198.47;;;-0.50;100.00
788;BME280;16074;42.708;23.312;2023-01-30T05:11:23;138238.97;;;-0.33;100.00
788;BME280;16074;42.708;23.312;2023-01-30T05:13:53;138177.03;;;-0.59;100.00
788;BME280;16074;42.708;23.312;2023-01-30T05:16:21;138202.00;;;-0.49;100.00
788;BME280;16074;42.708;23.312;2023-01-30T05:18:50;138193.69;;;-0.52;100.00
788;BME280;16074;42.708;23.312;2023-01-30T05:21:20;138206.78;;;-0.47;100.00
788;BME280;16074;42.708;23.312;2023-01-30T05:23:50;138217.53;;;-0.42;100.00
788;BME280;16074;42.708;23.312;2023-01-30T05:26:18;138206.78;;;-0.47;100.00
788;BME280;16074;42.708;23.312;2023-01-30T05:28:50;138215.13;;;-0.43;100.00
788;BME280;16074;42.708;23.312;2023-01-30T05:31:20;138206.78;;;-0.47;100.00
788;BME280;16074;42.708;23.312;2023-01-30T05:33:50;138231.81;;;-0.36;100.00
788;BME280;16074;42.708;23.312;2023-01-30T05:36:21;138217.53;;;-0.42;100.00
788;BME280;16074;42.708;23.312;2023-01-30T05:38:49;138229.44;;;-0.37;100.00
788;BME280;16074;42.708;23.312;2023-01-30T05:41:17;138227.06;;;-0.38;100.00
788;BME280;16074;42.708;23.312;2023-01-30T05:43:48;138211.53;;;-0.45;100.00
788;BME280;16074;42.708;23.312;2023-01-30T05:46:17;138185.34;;;-0.56;100.00
788;BME280;16074;42.708;23.312;2023-01-30T05:48:47;138174.63;;;-0.60;100.00
788;BME280;16074;42.708;23.312;2023-01-30T05:51:16;138209.16;;;-0.46;100.00
788;BME280;16074;42.708;23.312;2023-01-30T05:53:46;138205.59;;;-0.47;100.00
788;BME280;16074;42.708;23.312;2023-01-30T05:56:15;138227.06;;;-0.38;100.00
788;BME280;16074;42.708;23.312;2023-01-30T05:58:48;138200.84;;;-0.49;100.00
788;BME280;16074;42.708;23.312;2023-01-30T06:01:16;138210.38;;;-0.45;100.00
788;BME280;16074;42.708;23.312;2023-01-30T06:03:45;138203.22;;;-0.48;100.00
788;BME280;16074;42.708;23.312;2023-01-30T06:06:15;138197.25;;;-0.51;100.00
788;BME280;16074;42.708;23.312;2023-01-30T06:08:43;138197.25;;;-0.51;100.00
788;BME280;16074;42.708;23.312;2023-01-30T06:11:14;138221.06;;;-0.41;100.00
788;BME280;16074;42.708;23.312;2023-01-30T06:13:43;138225.84;;;-0.39;100.00
788;BME280;16074;42.708;23.312;2023-01-30T06:16:13;138213.94;;;-0.44;100.00
788;BME280;16074;42.708;23.312;2023-01-30T06:18:42;138200.84;;;-0.49;100.00
788;BME280;16074;42.708;23.312;2023-01-30T06:21:15;138213.94;;;-0.44;100.00
788;BME280;16074;42.708;23.312;2023-01-30T06:23:43;138204.41;;;-0.48;100.00
788;BME280;16074;42.708;23.312;2023-01-30T06:26:12;138203.22;;;-0.48;100.00
788;BME280;16074;42.708;23.312;2023-01-30T06:28:41;138190.09;;;-0.54;100.00
788;BME280;16074;42.708;23.312;2023-01-30T06:31:10;138194.88;;;-0.52;100.00
788;BME280;16074;42.708;23.312;2023-01-30T06:33:38;138227.06;;;-0.38;100.00
788;BME280;16074;42.708;23.312;2023-01-30T06:36:07;138248.50;;;-0.29;100.00
788;BME280;16074;42.708;23.312;2023-01-30T06:38:37;138238.97;;;-0.33;100.00
788;BME280;16074;42.708;23.312;2023-01-30T06:41:05;138237.75;;;-0.34;100.00
788;BME280;16074;42.708;23.312;2023-01-30T06:43:33;138266.34;;;-0.22;100.00
788;BME280;16074;42.708;23.312;2023-01-30T06:46:02;138265.13;;;-0.22;100.00
788;BME280;16074;42.708;23.312;2023-01-30T06:48:30;138252.06;;;-0.28;100.00
788;BME280;16074;42.708;23.312;2023-01-30T06:50:58;138236.59;;;-0.34;100.00
788;BME280;16074;42.708;23.312;2023-01-30T06:53:27;138249.66;;;-0.29;100.00
788;BME280;16074;42.708;23.312;2023-01-30T06:55:59;138238.97;;;-0.33;100.00
788;BME280;16074;42.708;23.312;2023-01-30T06:58:28;138219.91;;;-0.41;100.00
788;BME280;16074;42.708;23.312;2023-01-30T07:00:56;138230.59;;;-0.37;100.00
788;BME280;16074;42.708;23.312;2023-01-30T07:03:25;138234.19;;;-0.35;100.00
788;BME280;16074;42.708;23.312;2023-01-30T07:05:53;138229.44;;;-0.37;100.00
788;BME280;16074;42.708;23.312;2023-01-30T07:08:21;138215.13;;;-0.43;100.00
788;BME280;16074;42.708;23.312;2023-01-30T07:10:50;138256.81;;;-0.26;100.00
788;BME280;16074;42.708;23.312;2023-01-30T07:13:20;138223.47;;;-0.40;100.00
788;BME280;16074;42.708;23.312;2023-01-30T07:15:48;138237.75;;;-0.34;100.00
788;BME280;16074;42.708;23.312;2023-01-30T07:18:16;138204.41;;;-0.48;100.00
788;BME280;16074;42.708;23.312;2023-01-30T07:20:48;138250.88;;;-0.28;100.00
788;BME280;16074;42.708;23.312;2023-01-30T07:23:16;138263.97;;;-0.23;100.00
788;BME280;16074;42.708;23.312;2023-01-30T07:25:45;138231.81;;;-0.36;100.00
788;BME280;16074;42.708;23.312;2023-01-30T07:28:13;138250.88;;;-0.28;100.00
788;BME280;16074;42.708;23.312;2023-01-30T07:30:43;138255.59;;;-0.26;100.00
788;BME280;16074;42.708;23.312;2023-01-30T07:33:11;138279.44;;;-0.16;100.00
788;BME280;16074;42.708;23.312;2023-01-30T07:35:39;138297.34;;;-0.09;100.00
788;BME280;16074;42.708;23.312;2023-01-30T07:38:08;138312.81;;;-0.03;100.00
788;BME280;16074;42.708;23.312;2023-01-30T07:40:37;138300.88;;;-0.07;100.00
788;BME280;16074;42.708;23.312;2023-01-30T07:43:07;138319.97;;;0.00;100.00
788;BME280;16074;42.708;23.312;2023-01-30T07:45:39;138324.72;;;0.02;100.00
788;BME280;16074;42.708;23.312;2023-01-30T07:48:12;138340.19;;;0.09;100.00
788;BME280;16074;42.708;23.312;2023-01-30T07:50:41;138325.88;;;0.03;100.00
788;BME280;16074;42.708;23.312;2023-01-30T07:53:11;138339.03;;;0.08;100.00
788;BME280;16074;42.708;23.312;2023-01-30T07:55:40;138317.56;;;-0.01;100.00
788;BME280;16074;42.708;23.312;2023-01-30T07:58:11;138333.03;;;0.06;100.00
788;BME280;16074;42.708;23.312;2023-01-30T08:00:40;138340.19;;;0.09;100.00
788;BME280;16074;42.708;23.312;2023-01-30T08:03:12;138302.09;;;-0.07;100.00
788;BME280;16074;42.708;23.312;2023-01-30T08:05:41;138317.56;;;-0.01;100.00
788;BME280;16074;42.708;23.312;2023-01-30T08:08:10;138279.44;;;-0.16;100.00
788;BME280;16074;42.708;23.312;2023-01-30T08:10:38;138283.03;;;-0.15;100.00
788;BME280;16074;42.708;23.312;2023-01-30T08:13:06;138305.66;;;-0.05;100.00
788;BME280;16074;42.708;23.312;2023-01-30T08:15:35;138329.50;;;0.04;100.00
788;BME280;16074;42.708;23.312;2023-01-30T08:18:03;138316.41;;;-0.01;100.00
788;BME280;16074;42.708;23.312;2023-01-30T08:20:35;138302.09;;;-0.07;100.00
788;BME280;16074;42.708;23.312;2023-01-30T08:23:03;138269.91;;;-0.20;100.00
788;BME280;16074;42.708;23.312;2023-01-30T08:25:31;138286.59;;;-0.13;100.00
788;BME280;16074;42.708;23.312;2023-01-30T08:28:01;138272.28;;;-0.19;100.00
788;BME280;16074;42.708;23.312;2023-01-30T08:30:30;138255.59;;;-0.26;100.00
788;BME280;16074;42.708;23.312;2023-01-30T08:32:58;138296.13;;;-0.09;100.00
788;BME280;16074;42.708;23.312;2023-01-30T08:35:27;138273.50;;;-0.19;100.00
788;BME280;16074;42.708;23.312;2023-01-30T08:37:56;138263.97;;;-0.23;100.00
788;BME280;16074;42.708;23.312;2023-01-30T08:40:25;138300.88;;;-0.07;100.00
788;BME280;16074;42.708;23.312;2023-01-30T08:42:53;138284.19;;;-0.14;100.00
788;BME280;16074;42.708;23.312;2023-01-30T08:45:22;138296.13;;;-0.09;100.00
788;BME280;16074;42.708;23.312;2023-01-30T08:47:50;138300.88;;;-0.07;100.00
788;BME280;16074;42.708;23.312;2023-01-30T08:50:19;138298.50;;;-0.08;100.00
788;BME280;16074;42.708;23.312;2023-01-30T08:52:47;138286.59;;;-0.13;100.00
788;BME280;16074;42.708;23.312;2023-01-30T08:55:17;138306.88;;;-0.05;100.00
788;BME280;16074;42.708;23.312;2023-01-30T08:57:46;138297.34;;;-0.09;100.00
788;BME280;16074;42.708;23.312;2023-01-30T09:00:15;138281.81;;;-0.15;100.00
788;BME280;16074;42.708;23.312;2023-01-30T09:02:44;138321.13;;;0.01;100.00
788;BME280;16074;42.708;23.312;2023-01-30T09:05:12;138325.88;;;0.03;100.00
788;BME280;16074;42.708;23.312;2023-01-30T09:07:41;138333.03;;;0.06;100.00
788;BME280;16074;42.708;23.312;2023-01-30T09:10:10;138362.88;;;0.18;100.00
788;BME280;16074;42.708;23.312;2023-01-30T09:12:40;138374.78;;;0.23;100.00
788;BME280;16074;42.708;23.312;2023-01-30T09:15:09;138364.03;;;0.19;100.00
788;BME280;16074;42.708;23.312;2023-01-30T09:17:37;138377.19;;;0.24;100.00
788;BME280;16074;42.708;23.312;2023-01-30T09:20:07;138391.44;;;0.30;100.00
788;BME280;16074;42.708;23.312;2023-01-30T09:22:36;138402.19;;;0.35;100.00
788;BME280;16074;42.708;23.312;2023-01-30T09:25:06;138431.97;;;0.47;100.00
788;BME280;16074;42.708;23.312;2023-01-30T09:27:34;138422.44;;;0.43;100.00
788;BME280;16074;42.708;23.312;2023-01-30T09:30:05;138422.44;;;0.43;100.00
788;BME280;16074;42.708;23.312;2023-01-30T09:32:33;138406.97;;;0.37;100.00
788;BME280;16074;42.708;23.312;2023-01-30T09:35:03;138377.19;;;0.24;100.00
788;BME280;16074;42.708;23.312;2023-01-30T09:37:32;138366.44;;;0.20;100.00
788;BME280;16074;42.708;23.312;2023-01-30T09:40:00;138333.03;;;0.06;100.00
788;BME280;16074;42.708;23.312;2023-01-30T09:43:05;138314.03;;;-0.02;100.00
788;BME280;16074;42.708;23.312;2023-01-30T09:45:52;138323.50;;;0.02;100.00
788;BME280;16074;42.708;23.312;2023-01-30T09:48:29;138323.50;;;0.02;100.00
788;BME280;16074;42.708;23.312;2023-01-30T09:51:11;138344.97;;;0.11;100.00
788;BME280;16074;42.708;23.312;2023-01-30T09:53:58;138327.09;;;0.03;100.00
788;BME280;16074;42.708;23.312;2023-01-30T09:56:30;138364.03;;;0.19;100.00
788;BME280;16074;42.708;23.312;2023-01-30T09:59:00;138383.13;;;0.27;100.00
788;BME280;16074;42.708;23.312;2023-01-30T10:01:36;138415.28;;;0.40;100.00
788;BME280;16074;42.708;23.312;2023-01-30T10:04:12;138427.22;;;0.45;100.00
788;BME280;16074;42.708;23.312;2023-01-30T10:06:50;138395.03;;;0.32;100.00
788;BME280;16074;42.708;23.312;2023-01-30T10:09:30;138344.97;;;0.11;100.00
788;BME280;16074;42.708;23.312;2023-01-30T10:12:24;138340.19;;;0.09;100.00
788;BME280;16074;42.708;23.312;2023-01-30T10:18:01;138334.25;;;0.06;100.00
788;BME280;16074;42.708;23.312;2023-01-30T10:20:39;138360.50;;;0.17;100.00
788;BME280;16074;42.708;23.312;2023-01-30T10:23:21;138384.34;;;0.27;100.00
788;BME280;16074;42.708;23.312;2023-01-30T10:25:55;138400.97;;;0.34;100.00
788;BME280;16074;42.708;23.312;2023-01-30T10:28:28;138398.59;;;0.33;100.00
788;BME280;16074;42.708;23.312;2023-01-30T10:31:02;138421.28;;;0.43;100.00
788;BME280;16074;42.708;23.312;2023-01-30T10:33:34;138391.44;;;0.30;100.00
788;BME280;16074;42.708;23.312;2023-01-30T10:36:06;138362.88;;;0.18;99.70
788;BME280;16074;42.708;23.312;2023-01-30T10:38:43;138391.44;;;0.30;99.94
788;BME280;16074;42.708;23.312;2023-01-30T10:41:19;138405.75;;;0.36;99.32
788;BME280;16074;42.708;23.312;2023-01-30T10:43:57;138405.75;;;0.36;98.00
788;BME280;16074;42.708;23.312;2023-01-30T10:46:38;138408.13;;;0.37;97.40
788;BME280;16074;42.708;23.312;2023-01-30T10:49:15;138402.19;;;0.35;97.00
788;BME280;16074;42.708;23.312;2023-01-30T10:51:52;138400.97;;;0.34;97.04
788;BME280;16074;42.708;23.312;2023-01-30T10:54:30;138398.59;;;0.33;97.04
788;BME280;16074;42.708;23.312;2023-01-30T10:57:12;138379.56;;;0.25;97.23
788;BME280;16074;42.708;23.312;2023-01-30T10:59:49;138383.13;;;0.27;97.11
788;BME280;16074;42.708;23.312;2023-01-30T11:02:23;138366.44;;;0.20;96.86
788;BME280;16074;42.708;23.312;2023-01-30T11:04:58;138372.41;;;0.22;98.41
788;BME280;16074;42.708;23.312;2023-01-30T11:07:32;138375.97;;;0.24;98.08
788;BME280;16074;42.708;23.312;2023-01-30T11:10:00;138404.56;;;0.36;98.81
788;BME280;16074;42.708;23.312;2023-01-30T11:12:29;138436.75;;;0.49;98.66
788;BME280;16074;42.708;23.312;2023-01-30T11:14:58;138440.34;;;0.51;99.56
788;BME280;16074;42.708;23.312;2023-01-30T11:17:29;138436.75;;;0.49;98.11
788;BME280;16074;42.708;23.312;2023-01-30T11:20:06;138430.81;;;0.47;96.61
788;BME280;16074;42.708;23.312;2023-01-30T11:22:45;138466.53;;;0.62;95.62
788;BME280;16074;42.708;23.312;2023-01-30T11:25:15;138483.25;;;0.69;95.65
788;BME280;16074;42.708;23.312;2023-01-30T11:27:51;138504.72;;;0.78;95.63
788;BME280;16074;42.708;23.312;2023-01-30T11:30:20;138530.97;;;0.89;94.55
788;BME280;16074;42.708;23.312;2023-01-30T11:32:49;138539.28;;;0.92;94.52
788;BME280;16074;42.708;23.312;2023-01-30T11:35:27;138564.38;;;1.03;94.24
788;BME280;16074;42.708;23.312;2023-01-30T11:38:12;138532.13;;;0.89;92.28
788;BME280;16074;42.708;23.312;2023-01-30T11:40:40;138523.78;;;0.86;92.33
788;BME280;16074;42.708;23.312;2023-01-30T11:43:11;138526.19;;;0.87;93.39
788;BME280;16074;42.708;23.312;2023-01-30T11:45:42;138517.84;;;0.83;93.17
788;BME280;16074;42.708;23.312;2023-01-30T11:48:16;138534.50;;;0.90;94.03
788;BME280;16074;42.708;23.312;2023-01-30T11:51:03;138553.59;;;0.98;93.08
788;BME280;16074;42.708;23.312;2023-01-30T11:53:35;138552.44;;;0.98;92.50
788;BME280;16074;42.708;23.312;2023-01-30T11:56:07;138551.22;;;0.97;92.82
788;BME280;16074;42.708;23.312;2023-01-30T11:58:39;138564.38;;;1.03;92.84
788;BME280;16074;42.708;23.312;2023-01-30T12:01:13;138582.25;;;1.10;92.95
788;BME280;16074;42.708;23.312;2023-01-30T12:03:47;138584.63;;;1.11;92.13
788;BME280;16074;42.708;23.312;2023-01-30T12:06:28;138569.13;;;1.05;91.83
788;BME280;16074;42.708;23.312;2023-01-30T12:08:57;138581.06;;;1.10;91.63
788;BME280;16074;42.708;23.312;2023-01-30T12:11:29;138576.28;;;1.08;91.14
788;BME280;16074;42.708;23.312;2023-01-30T12:14:12;138597.72;;;1.16;91.32
788;BME280;16074;42.708;23.312;2023-01-30T12:16:50;138589.41;;;1.13;91.31
788;BME280;16074;42.708;23.312;2023-01-30T12:19:37;138565.53;;;1.03;90.69
788;BME280;16074;42.708;23.312;2023-01-30T12:22:19;138563.16;;;1.02;91.09
788;BME280;16074;42.708;23.312;2023-01-30T12:24:58;138606.09;;;1.20;91.43
788;BME280;16074;42.708;23.312;2023-01-30T12:27:42;138591.78;;;1.14;91.26
788;BME280;16074;42.708;23.312;2023-01-30T12:30:21;138600.13;;;1.17;91.63
788;BME280;16074;42.708;23.312;2023-01-30T12:32:56;138590.56;;;1.13;90.18
788;BME280;16074;42.708;23.312;2023-01-30T12:35:40;138595.34;;;1.15;89.70
788;BME280;16074;42.708;23.312;2023-01-30T12:38:22;138622.81;;;1.27;90.40
788;BME280;16074;42.708;23.312;2023-01-30T12:41:03;138665.72;;;1.45;90.25
788;BME280;16074;42.708;23.312;2023-01-30T12:43:45;138671.72;;;1.47;89.59
788;BME280;16074;42.708;23.312;2023-01-30T12:46:34;138678.88;;;1.50;88.43
788;BME280;16074;42.708;23.312;2023-01-30T12:49:27;138700.38;;;1.59;88.41
788;BME280;16074;42.708;23.312;2023-01-30T12:52:28;138693.22;;;1.56;87.85
788;BME280;16074;42.708;23.312;2023-01-30T12:55:08;138696.78;;;1.58;87.64
788;BME280;16074;42.708;23.312;2023-01-30T12:57:49;138721.88;;;1.68;88.20
788;BME280;16074;42.708;23.312;2023-01-30T13:00:29;138723.03;;;1.69;87.79
788;BME280;16074;42.708;23.312;2023-01-30T13:03:14;138715.88;;;1.66;88.55
788;BME280;16074;42.708;23.312;2023-01-30T13:05:50;138714.69;;;1.65;87.65
788;BME280;16074;42.708;23.312;2023-01-30T13:08:33;138713.50;;;1.65;86.10
788;BME280;16074;42.708;23.312;2023-01-30T13:11:14;138711.09;;;1.64;87.48
788;BME280;16074;42.708;23.312;2023-01-30T13:13:50;138727.81;;;1.71;87.58
788;BME280;16074;42.708;23.312;2023-01-30T13:16:25;138749.31;;;1.80;88.01
788;BME280;16074;42.708;23.312;2023-01-30T13:18:58;138726.59;;;1.70;87.42
788;BME280;16074;42.708;23.312;2023-01-30T13:21:33;138721.88;;;1.68;87.45
788;BME280;16074;42.708;23.312;2023-01-30T13:24:13;138718.25;;;1.67;87.60
788;BME280;16074;42.708;23.312;2023-01-30T13:26:47;138675.28;;;1.49;87.02
788;BME280;16074;42.708;23.312;2023-01-30T13:29:24;138669.34;;;1.46;88.19
788;BME280;16074;42.708;23.312;2023-01-30T13:31:55;138662.19;;;1.43;86.80
788;BME280;16074;42.708;23.312;2023-01-30T13:34:28;138666.94;;;1.45;86.65
788;BME280;16074;42.708;23.312;2023-01-30T13:37:00;138649.06;;;1.38;86.49
788;BME280;16074;42.708;23.312;2023-01-30T13:39:35;138646.69;;;1.37;87.24
788;BME280;16074;42.708;23.312;2023-01-30T13:42:16;138622.81;;;1.27;87.88
788;BME280;16074;42.708;23.312;2023-01-30T13:44:48;138666.94;;;1.45;87.94
788;BME280;16074;42.708;23.312;2023-01-30T13:47:26;138632.34;;;1.31;87.73
788;BME280;16074;42.708;23.312;2023-01-30T13:50:08;138627.59;;;1.29;87.11